Time;durP1;ratioP1;P1;durP2;ratioP2;P2;SDS_P1;SDS_P2;PMS_P1;PMS_P2;Temp;Humidity;BMP_temperature;BMP_pressure;BME280_temperature;BME280_humidity;BME280_pressure;Samples;Min_cycle;Max_cycle;Signal;HPM_P1;HPM_P2
2023/01/29 00:01:29;;;;;;;0.50;0.50;;;;;;;3.14;100.00;102561.00;5012362;28;20068;-78
2023/01/29 00:03:54;;;;;;;1.35;1.35;;;;;;;3.18;100.00;102570.53;5011534;28;20480;-78
2023/01/29 00:06:22;;;;;;;0.50;0.50;;;;;;;3.20;100.00;102564.22;4996000;28;20057;-77
2023/01/29 00:08:47;;;;;;;0.80;0.80;;;;;;;3.22;100.00;102554.31;4996193;28;20030;-78
2023/01/29 00:11:13;;;;;;;1.23;1.23;;;;;;;3.26;100.00;102557.69;5011920;28;20037;-77
2023/01/29 00:13:39;;;;;;;0.80;0.80;;;;;;;3.23;100.00;102552.56;4996208;28;20038;-78
2023/01/29 00:16:05;;;;;;;0.50;0.50;;;;;;;3.26;100.00;102541.75;4996041;28;20087;-78
2023/01/29 00:18:31;;;;;;;0.40;0.40;;;;;;;3.36;100.00;102550.03;5011812;28;20042;-77
2023/01/29 00:20:57;;;;;;;0.50;0.50;;;;;;;3.37;100.00;102543.81;4996111;28;20132;-77
2023/01/29 00:23:22;;;;;;;0.50;0.50;;;;;;;3.27;100.00;102538.97;4979400;28;20166;-79
2023/01/29 00:25:48;;;;;;;0.47;0.47;;;;;;;3.12;100.00;102526.53;4979627;28;20046;-76
2023/01/29 00:28:14;;;;;;;0.40;0.40;;;;;;;3.01;100.00;102520.94;4979672;28;20538;-77
2023/01/29 00:30:40;;;;;;;0.47;0.47;;;;;;;2.99;100.00;102526.38;5014733;28;20026;-77
2023/01/29 00:33:05;;;;;;;1.25;1.25;;;;;;;3.01;100.00;102534.22;4998903;28;20042;-77
2023/01/29 00:35:32;;;;;;;0.50;0.50;;;;;;;3.07;100.00;102540.09;4999512;28;20380;-77
2023/01/29 00:37:58;;;;;;;0.50;0.50;;;;;;;3.16;100.00;102544.03;4999243;28;20038;-77
2023/01/29 00:40:25;;;;;;;0.50;0.50;;;;;;;3.26;100.00;102537.28;5014912;28;20044;-77
2023/01/29 00:45:36;;;;;;;0.50;0.50;;;;;;;3.49;100.00;102545.75;5001986;28;20030;-76
2023/01/29 00:48:04;;;;;;;0.52;0.52;;;;;;;3.53;100.00;102542.00;5014642;28;20515;-77
2023/01/29 00:50:31;;;;;;;0.50;0.50;;;;;;;3.43;100.00;102524.84;4999261;28;20172;-76
2023/01/29 00:52:56;;;;;;;0.50;0.50;;;;;;;3.51;100.00;102534.09;5015084;28;20140;-77
2023/01/29 00:55:22;;;;;;;0.85;0.85;;;;;;;3.50;100.00;102534.19;4998497;28;20495;-77
2023/01/29 00:57:48;;;;;;;0.40;0.40;;;;;;;3.49;100.00;102528.03;5015108;28;20463;-76
2023/01/29 01:00:16;;;;;;;0.47;0.47;;;;;;;3.44;100.00;102518.56;4999111;28;20041;-77
2023/01/29 01:05:27;;;;;;;0.40;0.40;;;;;;;3.59;100.00;102525.69;5001561;28;20029;-76
2023/01/29 01:07:55;;;;;;;0.50;0.50;;;;;;;3.57;100.00;102513.41;4998351;28;20056;-77
2023/01/29 01:10:32;;;;;;;0.47;0.47;;;;;;;3.58;100.00;102505.38;4998874;28;20045;-77
2023/01/29 01:12:57;;;;;;;0.50;0.50;;;;;;;3.62;100.00;102498.06;5015034;28;20038;-77
2023/01/29 01:15:29;;;;;;;0.50;0.50;;;;;;;3.59;100.00;102493.75;5014740;28;20044;-77
2023/01/29 01:17:57;;;;;;;0.80;0.80;;;;;;;3.66;100.00;102511.09;4998795;28;20070;-77
2023/01/29 01:20:23;;;;;;;0.50;0.50;;;;;;;3.67;100.00;102503.97;5014398;28;20038;-77
2023/01/29 01:22:49;;;;;;;0.50;0.50;;;;;;;3.77;100.00;102505.16;5014717;28;20121;-77
2023/01/29 01:25:16;;;;;;;0.40;0.40;;;;;;;3.79;100.00;102497.94;4982319;28;20120;-77
2023/01/29 01:27:43;;;;;;;0.50;0.50;;;;;;;3.80;100.00;102489.00;4998321;28;20037;-77
2023/01/29 01:30:12;;;;;;;0.50;0.50;;;;;;;3.80;100.00;102486.34;4998534;28;20041;-77
2023/01/29 01:32:37;;;;;;;0.52;0.52;;;;;;;3.84;100.00;102495.88;5014861;28;20060;-76
2023/01/29 01:35:03;;;;;;;0.40;0.40;;;;;;;3.85;100.00;102499.38;5014642;28;20467;-76
2023/01/29 01:37:29;;;;;;;0.40;0.40;;;;;;;3.85;100.00;102494.91;5013750;28;20120;-77
2023/01/29 01:39:56;;;;;;;0.50;0.50;;;;;;;3.89;100.00;102493.81;5014285;28;20156;-77
2023/01/29 01:42:28;;;;;;;0.43;0.43;;;;;;;3.93;100.00;102497.13;4997632;28;20046;-76
2023/01/29 01:45:03;;;;;;;0.50;0.50;;;;;;;3.89;100.00;102474.31;5013704;28;20026;-76
2023/01/29 01:47:33;;;;;;;0.40;0.40;;;;;;;3.99;100.00;102486.13;5014594;28;20488;-77
2023/01/29 01:50:07;;;;;;;0.70;0.70;;;;;;;3.82;100.00;102460.50;4982391;28;20042;-76
2023/01/29 01:52:34;;;;;;;0.47;0.47;;;;;;;3.99;100.00;102477.28;4998083;28;20030;-76
2023/01/29 01:55:01;;;;;;;0.50;0.50;;;;;;;4.01;100.00;102478.06;4998243;28;20040;-76
2023/01/29 01:57:28;;;;;;;0.50;0.50;;;;;;;4.02;100.00;102475.28;5013617;28;20030;-76
2023/01/29 01:59:58;;;;;;;0.50;0.50;;;;;;;4.08;100.00;102472.28;5013799;28;20095;-79
2023/01/29 02:10:45;;;;;;;0.50;0.50;;;;;;;4.23;100.00;102459.84;5000112;28;20030;-78
2023/01/29 02:13:11;;;;;;;0.40;0.40;;;;;;;4.19;100.00;102466.31;5014122;28;20041;-78
2023/01/29 02:15:40;;;;;;;0.50;0.50;;;;;;;4.18;100.00;102446.81;5013641;28;20045;-79
2023/01/29 02:18:07;;;;;;;0.40;0.40;;;;;;;4.24;100.00;102453.59;4997901;28;20034;-78
2023/01/29 02:20:33;;;;;;;0.50;0.50;;;;;;;4.25;100.00;102454.44;5013773;28;20038;-78
2023/01/29 02:23:02;;;;;;;0.50;0.50;;;;;;;4.22;100.00;102457.28;4997377;28;20042;-78
2023/01/29 02:26:05;;;;;;;0.40;0.40;;;;;;;4.25;100.00;102449.97;5029647;28;20034;-79
2023/01/29 02:28:42;;;;;;;0.40;0.40;;;;;;;4.29;100.00;102446.16;5014597;28;20038;-79
2023/01/29 02:31:11;;;;;;;0.40;0.40;;;;;;;4.25;100.00;102441.97;5013700;28;20080;-78
2023/01/29 02:33:40;;;;;;;0.50;0.50;;;;;;;4.42;100.00;102443.63;4997072;28;20033;-76
2023/01/29 02:36:30;;;;;;;0.50;0.50;;;;;;;4.44;100.00;102441.69;5014875;28;20113;-79
2023/01/29 02:39:16;;;;;;;0.50;0.50;;;;;;;4.47;100.00;102430.00;4997102;28;20084;-79
2023/01/29 02:41:57;;;;;;;0.40;0.40;;;;;;;4.47;100.00;102408.69;5013469;28;20052;-78
2023/01/29 02:44:42;;;;;;;0.50;0.50;;;;;;;4.54;100.00;102415.34;5013736;28;20484;-79
2023/01/29 02:47:18;;;;;;;0.40;0.40;;;;;;;4.58;100.00;102412.41;4996623;28;20037;-78
2023/01/29 02:50:03;;;;;;;0.40;0.40;;;;;;;4.59;100.00;102408.78;5013249;28;20048;-78
2023/01/29 02:52:35;;;;;;;0.40;0.40;;;;;;;4.59;100.00;102400.78;5029012;28;20034;-79
2023/01/29 02:55:38;;;;;;;0.40;0.40;;;;;;;4.60;100.00;102391.84;5012688;28;20053;-79
2023/01/29 02:58:24;;;;;;;0.40;0.40;;;;;;;4.67;100.00;102396.78;4999387;28;20049;-78
2023/01/29 03:00:50;;;;;;;0.40;0.40;;;;;;;4.61;100.00;102392.72;4988738;28;20415;-78
2023/01/29 03:03:19;;;;;;;0.50;0.50;;;;;;;4.69;100.00;102398.41;4980870;28;20038;-78
2023/01/29 03:05:55;;;;;;;0.40;0.40;;;;;;;4.71;100.00;102391.19;4980698;28;20046;-77
2023/01/29 03:08:35;;;;;;;0.50;0.50;;;;;;;4.77;100.00;102393.44;5012485;28;20030;-78
2023/01/29 03:11:06;;;;;;;0.50;0.50;;;;;;;4.81;100.00;102389.59;4982508;28;20498;-78
2023/01/29 03:14:15;;;;;;;0.40;0.40;;;;;;;4.81;100.00;102394.94;4981022;28;20133;-78
2023/01/29 03:16:49;;;;;;;0.47;0.47;;;;;;;4.77;100.00;102379.25;4996608;28;20026;-78
2023/01/29 03:19:37;;;;;;;0.50;0.50;;;;;;;4.82;100.00;102379.84;4996794;28;20467;-77
2023/01/29 03:22:05;;;;;;;0.50;0.50;;;;;;;4.83;100.00;102373.53;4996393;28;20042;-78
2023/01/29 03:33:25;;;;;;;0.50;0.50;;;;;;;4.86;100.00;102362.66;4998964;28;20131;-77
2023/01/29 03:36:01;;;;;;;0.50;0.50;;;;;;;4.88;100.00;102355.44;5012307;28;20034;-78
2023/01/29 03:38:28;;;;;;;0.50;0.50;;;;;;;4.89;100.00;102357.13;4980178;28;20432;-77
2023/01/29 03:41:04;;;;;;;0.40;0.40;;;;;;;4.82;100.00;102334.53;4980740;28;20038;-78
2023/01/29 03:43:57;;;;;;;0.50;0.50;;;;;;;4.93;100.00;102344.47;4980309;28;20045;-77
2023/01/29 03:46:28;;;;;;;0.52;0.52;;;;;;;4.96;100.00;102349.59;5012745;28;20084;-77
2023/01/29 03:49:29;;;;;;;0.40;0.40;;;;;;;4.96;100.00;102355.78;4996177;28;20084;-77
2023/01/29 03:52:18;;;;;;;0.50;0.50;;;;;;;4.93;100.00;102339.16;4996688;28;20042;-77
2023/01/29 03:54:58;;;;;;;0.45;0.45;;;;;;;4.94;100.00;102339.03;4979576;28;20037;-77
2023/01/29 03:57:35;;;;;;;0.40;0.40;;;;;;;4.96;100.00;102337.13;5012676;28;20038;-77
2023/01/29 04:00:09;;;;;;;0.40;0.40;;;;;;;4.87;100.00;102321.75;5012269;28;20037;-77
2023/01/29 04:02:50;;;;;;;0.50;0.50;;;;;;;4.94;100.00;102325.69;5013911;28;20125;-77
2023/01/29 04:05:19;;;;;;;0.40;0.40;;;;;;;4.95;100.00;102330.09;5014647;28;20029;-77
2023/01/29 04:07:46;;;;;;;0.50;0.50;;;;;;;4.98;100.00;102337.03;5015698;28;20032;-78
2023/01/29 04:10:16;;;;;;;0.50;0.50;;;;;;;5.01;100.00;102337.69;5000054;28;20041;-78
2023/01/29 04:12:46;;;;;;;0.50;0.50;;;;;;;5.03;100.00;102332.28;5000413;28;20064;-78
2023/01/29 04:15:16;;;;;;;0.50;0.50;;;;;;;5.05;100.00;102333.00;4999858;28;20484;-77
2023/01/29 04:17:48;;;;;;;0.55;0.55;;;;;;;5.03;100.00;102326.94;5000318;28;20088;-78
2023/01/29 04:20:15;;;;;;;0.50;0.50;;;;;;;4.89;100.00;102297.66;4984547;28;20033;-77
2023/01/29 04:22:45;;;;;;;0.50;0.50;;;;;;;4.99;100.00;102314.75;5015786;28;20454;-78
2023/01/29 04:25:16;;;;;;;0.50;0.50;;;;;;;5.03;100.00;102319.78;5016012;28;20117;-77
2023/01/29 04:28:12;;;;;;;0.40;0.40;;;;;;;5.11;100.00;102329.06;5015721;28;20030;-77
2023/01/29 04:30:46;;;;;;;0.50;0.50;;;;;;;5.13;100.00;102325.34;5015663;28;20061;-77
2023/01/29 04:33:38;;;;;;;0.40;0.40;;;;;;;5.18;100.00;102325.88;4999807;28;20076;-77
2023/01/29 04:36:15;;;;;;;0.50;0.50;;;;;;;5.01;100.00;102292.38;4984160;28;20044;-77
2023/01/29 04:38:59;;;;;;;0.50;0.50;;;;;;;5.07;100.00;102301.75;5031581;28;20042;-78
2023/01/29 04:41:40;;;;;;;0.50;0.50;;;;;;;5.15;100.00;102318.09;4983302;28;20065;-77
2023/01/29 04:44:43;;;;;;;0.50;0.50;;;;;;;5.12;100.00;102318.31;5015325;28;20041;-77
2023/01/29 04:47:14;;;;;;;0.50;0.50;;;;;;;5.08;100.00;102324.81;5015715;28;20038;-77
2023/01/29 04:49:57;;;;;;;0.50;0.50;;;;;;;5.07;100.00;102309.75;4999100;28;20080;-77
2023/01/29 04:52:33;;;;;;;0.50;0.50;;;;;;;5.02;100.00;102309.22;5015589;28;20041;-77
2023/01/29 04:55:13;;;;;;;0.50;0.50;;;;;;;4.92;100.00;102306.31;4998708;28;20096;-77
2023/01/29 04:58:09;;;;;;;0.50;0.50;;;;;;;4.99;100.00;102314.75;5015480;28;20029;-77
2023/01/29 05:00:42;;;;;;;0.50;0.50;;;;;;;4.95;100.00;102298.13;4997359;28;20136;-77
2023/01/29 05:03:11;;;;;;;0.50;0.50;;;;;;;4.91;100.00;102303.75;4999120;28;20033;-77
2023/01/29 05:05:38;;;;;;;0.50;0.50;;;;;;;4.93;100.00;102309.84;5015201;28;20088;-78
2023/01/29 05:08:07;;;;;;;0.50;0.50;;;;;;;4.81;100.00;102296.34;5014720;28;20061;-78
2023/01/29 05:10:34;;;;;;;0.40;0.40;;;;;;;4.91;100.00;102303.75;4999372;28;20148;-78
2023/01/29 05:13:01;;;;;;;0.50;0.50;;;;;;;4.85;100.00;102305.84;5014716;28;20080;-77
2023/01/29 05:15:36;;;;;;;0.57;0.57;;;;;;;4.80;100.00;102309.78;5015073;28;20468;-77
2023/01/29 05:18:07;;;;;;;0.40;0.40;;;;;;;4.74;100.00;102296.88;4998903;28;20042;-77
2023/01/29 05:20:36;;;;;;;0.60;0.60;;;;;;;4.79;100.00;102308.03;4998676;28;20034;-78
2023/01/29 05:23:01;;;;;;;0.50;0.50;;;;;;;4.68;100.00;102283.91;4998810;28;20084;-78
2023/01/29 05:25:29;;;;;;;0.50;0.50;;;;;;;4.72;100.00;102299.63;5014426;28;20042;-78
2023/01/29 05:28:15;;;;;;;0.52;0.52;;;;;;;4.72;100.00;102302.28;4998468;28;20373;-78
2023/01/29 05:30:45;;;;;;;0.60;0.60;;;;;;;4.71;100.00;102297.91;5000590;28;20125;-78
2023/01/29 05:33:29;;;;;;;0.50;0.50;;;;;;;4.68;100.00;102298.09;5014603;28;20065;-78
2023/01/29 05:35:59;;;;;;;0.50;0.50;;;;;;;4.66;100.00;102289.38;4998198;28;20042;-77
2023/01/29 05:38:25;;;;;;;0.50;0.50;;;;;;;4.73;100.00;102295.97;4997730;28;20038;-78
2023/01/29 05:40:50;;;;;;;0.50;0.50;;;;;;;4.76;100.00;102295.81;4998422;28;20385;-79
2023/01/29 05:43:23;;;;;;;0.40;0.40;;;;;;;4.75;100.00;102285.25;4998372;28;20438;-79
2023/01/29 05:45:53;;;;;;;0.50;0.50;;;;;;;4.73;100.00;102282.66;5013454;28;20044;-78
2023/01/29 05:48:19;;;;;;;0.50;0.50;;;;;;;4.78;100.00;102288.53;4997946;28;20519;-77
2023/01/29 05:50:45;;;;;;;0.50;0.50;;;;;;;4.84;100.00;102277.50;5013775;28;20040;-77
2023/01/29 05:53:13;;;;;;;0.40;0.40;;;;;;;4.88;100.00;102266.63;5014155;28;20018;-78
2023/01/29 05:55:38;;;;;;;0.50;0.50;;;;;;;4.72;100.00;102243.66;4998129;28;20034;-78
2023/01/29 05:58:05;;;;;;;0.40;0.40;;;;;;;4.87;100.00;102278.22;5013382;28;20045;-79
2023/01/29 06:00:30;;;;;;;0.50;0.50;;;;;;;4.88;100.00;102269.31;5013961;28;20038;-77
2023/01/29 06:02:57;;;;;;;0.50;0.50;;;;;;;4.87;100.00;102268.44;5014006;28;20030;-78
2023/01/29 06:05:23;;;;;;;0.50;0.50;;;;;;;4.88;100.00;102261.31;4997449;28;20048;-78
2023/01/29 06:07:48;;;;;;;0.50;0.50;;;;;;;4.90;100.00;102262.06;5014118;28;20041;-78
2023/01/29 06:10:16;;;;;;;0.50;0.50;;;;;;;4.89;100.00;102252.34;4996790;28;20030;-78
2023/01/29 06:12:43;;;;;;;0.40;0.40;;;;;;;4.91;100.00;102259.28;4997889;28;20502;-78
2023/01/29 06:15:09;;;;;;;0.50;0.50;;;;;;;4.93;100.00;102252.03;4997740;28;20052;-78
2023/01/29 06:17:35;;;;;;;0.40;0.40;;;;;;;4.92;100.00;102250.34;5013180;28;20480;-77
2023/01/29 06:20:01;;;;;;;0.50;0.50;;;;;;;4.91;100.00;102255.75;5013532;28;20034;-77
2023/01/29 06:22:26;;;;;;;0.50;0.50;;;;;;;4.87;100.00;102236.47;5013392;28;20076;-77
2023/01/29 06:24:52;;;;;;;0.50;0.50;;;;;;;4.85;100.00;102236.56;4997295;28;20061;-79
2023/01/29 06:27:18;;;;;;;0.50;0.50;;;;;;;4.82;100.00;102227.94;5012842;28;20030;-78
2023/01/29 06:29:46;;;;;;;0.40;0.40;;;;;;;4.77;100.00;102238.88;5012999;28;20033;-77
2023/01/29 06:32:11;;;;;;;0.50;0.50;;;;;;;4.71;100.00;102238.41;4997475;28;20044;-78
2023/01/29 06:34:37;;;;;;;0.50;0.50;;;;;;;4.67;100.00;102240.44;5013332;28;20026;-78
2023/01/29 06:37:02;;;;;;;0.40;0.40;;;;;;;4.72;100.00;102238.34;5013216;28;20080;-78
2023/01/29 06:39:28;;;;;;;0.50;0.50;;;;;;;4.73;100.00;102240.03;4997318;28;20044;-78
2023/01/29 06:41:54;;;;;;;0.50;0.50;;;;;;;4.75;100.00;102229.28;5013143;28;20034;-78
2023/01/29 06:44:19;;;;;;;0.50;0.50;;;;;;;4.69;100.00;102224.38;4996955;28;20050;-78
2023/01/29 06:46:45;;;;;;;0.50;0.50;;;;;;;4.75;100.00;102238.13;4997220;28;20049;-77
2023/01/29 06:49:12;;;;;;;0.50;0.50;;;;;;;4.84;100.00;102232.19;4996187;28;20153;-78
2023/01/29 06:51:38;;;;;;;0.50;0.50;;;;;;;4.83;100.00;102235.78;5013426;28;20556;-78
2023/01/29 06:54:05;;;;;;;0.50;0.50;;;;;;;4.89;100.00;102244.34;5013425;28;20124;-78
2023/01/29 06:56:30;;;;;;;0.50;0.50;;;;;;;4.88;100.00;102242.66;4996623;28;20044;-78
2023/01/29 06:58:56;;;;;;;0.50;0.50;;;;;;;4.74;100.00;102222.25;5013214;28;20030;-78
2023/01/29 07:01:22;;;;;;;0.50;0.50;;;;;;;4.84;100.00;102244.63;4996587;28;20475;-78
2023/01/29 07:03:51;;;;;;;0.50;0.50;;;;;;;4.84;100.00;102242.84;4996886;28;20041;-78
2023/01/29 07:06:17;;;;;;;0.50;0.50;;;;;;;4.80;100.00;102235.16;5012653;28;20032;-78
2023/01/29 07:08:43;;;;;;;0.50;0.50;;;;;;;4.68;100.00;102234.13;4980241;28;20026;-78
2023/01/29 07:11:08;;;;;;;0.50;0.50;;;;;;;4.81;100.00;102242.19;5012858;28;20388;-79
2023/01/29 07:13:34;;;;;;;0.40;0.40;;;;;;;4.75;100.00;102229.28;4996559;28;20030;-78
2023/01/29 07:16:01;;;;;;;0.50;0.50;;;;;;;4.80;100.00;102237.81;4996629;28;20034;-79
2023/01/29 07:18:27;;;;;;;0.50;0.50;;;;;;;4.80;100.00;102227.16;4995896;28;20034;-78
2023/01/29 07:20:54;;;;;;;0.50;0.50;;;;;;;4.77;100.00;102214.91;4996711;28;20113;-77
2023/01/29 07:23:20;;;;;;;0.50;0.50;;;;;;;4.83;100.00;102226.94;4980460;28;20498;-78
2023/01/29 07:25:48;;;;;;;0.57;0.57;;;;;;;4.84;100.00;102221.53;4996614;28;20034;-79
2023/01/29 07:28:15;;;;;;;0.50;0.50;;;;;;;4.60;100.00;102178.72;4996960;28;20034;-77
2023/01/29 07:30:41;;;;;;;0.50;0.50;;;;;;;4.87;100.00;102217.81;5012489;28;20112;-77
2023/01/29 07:33:08;;;;;;;0.50;0.50;;;;;;;4.90;100.00;102216.75;5013761;28;20092;-78
2023/01/29 07:35:39;;;;;;;0.50;0.50;;;;;;;4.90;100.00;102206.94;4996185;28;20391;-78
2023/01/29 07:38:05;;;;;;;0.50;0.50;;;;;;;4.89;100.00;102213.22;5012240;28;20107;-79
2023/01/29 07:40:31;;;;;;;0.50;0.50;;;;;;;4.96;100.00;102216.34;5015024;28;20511;-80
2023/01/29 07:42:59;;;;;;;0.45;0.45;;;;;;;4.91;100.00;102202.47;5016605;28;20030;-81
2023/01/29 07:45:24;;;;;;;0.50;0.50;;;;;;;5.04;100.00;102216.66;5000701;28;20472;-78
2023/01/29 07:47:56;;;;;;;0.50;0.50;;;;;;;5.08;100.00;102220.84;5000044;28;20111;-80
2023/01/29 07:50:25;;;;;;;0.50;0.50;;;;;;;5.05;100.00;102215.69;5016256;28;20042;-79
2023/01/29 07:52:53;;;;;;;0.50;0.50;;;;;;;5.00;100.00;102210.69;5016347;28;20092;-78
2023/01/29 07:55:19;;;;;;;0.60;0.60;;;;;;;5.08;100.00;102223.50;5000171;28;20491;-79
2023/01/29 07:57:45;;;;;;;0.47;0.47;;;;;;;5.08;100.00;102220.84;5015989;28;20392;-77
2023/01/29 08:00:12;;;;;;;0.50;0.50;;;;;;;5.14;100.00;102228.41;4999750;28;20041;-80
2023/01/29 08:02:39;;;;;;;0.50;0.50;;;;;;;5.14;100.00;102238.22;5000018;28;20033;-77
2023/01/29 08:05:04;;;;;;;0.50;0.50;;;;;;;5.12;100.00;102238.31;5000185;28;20026;-77
2023/01/29 08:07:30;;;;;;;0.50;0.50;;;;;;;5.16;100.00;102231.84;5000068;28;20037;-78
2023/01/29 08:09:56;;;;;;;0.50;0.50;;;;;;;5.22;100.00;102242.06;5016163;28;20030;-77
2023/01/29 08:12:22;;;;;;;0.47;0.47;;;;;;;5.21;100.00;102234.16;5016201;28;20107;-78
2023/01/29 08:14:50;;;;;;;0.50;0.50;;;;;;;5.25;100.00;102239.19;5015911;28;20030;-77
2023/01/29 08:17:19;;;;;;;0.40;0.40;;;;;;;5.23;100.00;102241.09;5016079;28;20369;-79
2023/01/29 08:19:48;;;;;;;0.50;0.50;;;;;;;5.18;100.00;102235.22;5016958;28;20510;-79
2023/01/29 08:22:15;;;;;;;0.50;0.50;;;;;;;5.29;100.00;102242.50;4983483;28;20054;-78
2023/01/29 08:24:41;;;;;;;0.50;0.50;;;;;;;5.25;100.00;102230.34;5016058;28;20037;-76
2023/01/29 08:27:07;;;;;;;0.50;0.50;;;;;;;5.35;100.00;102241.25;4983584;28;20117;-78
2023/01/29 08:29:34;;;;;;;0.50;0.50;;;;;;;5.23;100.00;102209.09;4999136;28;20117;-79
2023/01/29 08:31:59;;;;;;;0.50;0.50;;;;;;;5.41;100.00;102232.81;4999781;28;20077;-79
2023/01/29 08:34:25;;;;;;;0.43;0.43;;;;;;;5.46;100.00;102242.19;4999553;28;20046;-78
2023/01/29 08:36:52;;;;;;;0.40;0.40;;;;;;;5.43;100.00;102223.75;4998848;28;20068;-79
2023/01/29 08:39:18;;;;;;;0.50;0.50;;;;;;;5.52;100.00;102235.59;4999316;28;20133;-79
2023/01/29 08:41:44;;;;;;;0.80;0.80;;;;;;;5.58;100.00;102240.47;5015245;28;20443;-81
2023/01/29 08:44:12;;;;;;;0.40;0.40;;;;;;;5.63;100.00;102241.00;4997941;28;20120;-79
2023/01/29 08:46:39;;;;;;;0.50;0.50;;;;;;;5.63;100.00;102238.34;4999032;28;20041;-79
2023/01/29 08:49:06;;;;;;;0.52;0.52;;;;;;;5.67;100.00;102241.69;5015045;28;20109;-79
2023/01/29 08:51:32;;;;;;;0.50;0.50;;;;;;;5.62;100.00;102235.81;5014962;28;20403;-79
2023/01/29 08:53:58;;;;;;;0.50;0.50;;;;;;;5.65;100.00;102239.09;4998766;28;20517;-79
2023/01/29 08:56:24;;;;;;;0.50;0.50;;;;;;;5.61;100.00;102226.06;5015171;28;20362;-79
2023/01/29 08:58:50;;;;;;;1.02;1.02;;;;;;;5.67;100.00;102236.34;4998612;28;20034;-79
2023/01/29 09:01:16;;;;;;;0.40;0.40;;;;;;;5.68;100.00;102238.88;4982762;28;20041;-79
2023/01/29 09:03:43;;;;;;;0.50;0.50;;;;;;;5.86;100.00;102243.91;5015225;28;20026;-79
2023/01/29 09:06:11;;;;;;;0.50;0.50;;;;;;;5.85;100.00;102228.84;5015079;28;20026;-79
2023/01/29 09:08:37;;;;;;;0.50;0.50;;;;;;;5.98;100.00;102239.53;4998740;28;20034;-79
2023/01/29 09:11:03;;;;;;;0.50;0.50;;;;;;;6.04;100.00;102233.75;4998523;28;20156;-79
2023/01/29 09:13:29;;;;;;;0.50;0.50;;;;;;;5.99;100.00;102223.41;5014774;28;20121;-79
2023/01/29 09:15:59;;;;;;;0.50;0.50;;;;;;;6.17;100.00;102242.59;5014895;28;20029;-79
2023/01/29 09:18:25;;;;;;;0.40;0.40;;;;;;;6.21;100.00;102232.53;4999030;28;20042;-80
2023/01/29 09:20:52;;;;;;;0.50;0.50;;;;;;;6.26;100.00;102233.06;4998289;28;20380;-79
2023/01/29 09:23:19;;;;;;;0.50;0.50;;;;;;;6.28;100.00;102237.31;5014714;28;20038;-79
2023/01/29 09:25:45;;;;;;;0.50;0.50;;;;;;;6.29;100.00;102233.66;5014466;28;20033;-79
2023/01/29 09:28:11;;;;;;;0.45;0.45;;;;;;;6.29;100.00;102233.66;4981562;28;20041;-79
2023/01/29 09:30:43;;;;;;;0.50;0.50;;;;;;;6.35;100.00;102237.72;4997937;28;20034;-80
2023/01/29 09:33:13;;;;;;;0.50;0.50;;;;;;;6.36;100.00;102236.75;4999042;28;20030;-79
2023/01/29 09:35:40;;;;;;;0.50;0.50;;;;;;;6.33;100.00;102239.66;4981465;28;20037;-79
2023/01/29 09:38:07;;;;;;;0.40;0.40;;;;;;;6.26;100.00;102223.22;4982282;28;20034;-79
2023/01/29 09:40:59;;;;;;;0.50;0.50;;;;;;;6.43;100.00;102231.81;4998063;28;20034;-78
2023/01/29 09:43:50;;;;;;;0.50;0.50;;;;;;;6.59;100.00;102230.59;4998021;28;20052;-79
2023/01/29 09:46:25;;;;;;;0.50;0.50;;;;;;;6.66;100.00;102224.78;5030726;28;20116;-79
2023/01/29 09:49:01;;;;;;;0.50;0.50;;;;;;;6.76;100.00;102223.97;5014378;28;20029;-79
2023/01/29 09:51:30;;;;;;;0.50;0.50;;;;;;;6.85;100.00;102219.75;5013863;28;20033;-79
2023/01/29 09:54:44;;;;;;;0.50;0.50;;;;;;;6.89;100.00;102220.38;5013796;28;20030;-79
2023/01/29 09:57:18;;;;;;;0.50;0.50;;;;;;;6.97;100.00;102209.97;4997626;28;20037;-79
2023/01/29 09:59:45;;;;;;;;;;;;;;;7.08;100.00;102218.00;4997633;28;20025;-80
2023/01/29 10:02:45;;;;;;;0.40;0.40;;;;;;;7.17;100.00;102205.75;4996624;28;19916;-78
2023/01/29 10:05:36;;;;;;;0.50;0.50;;;;;;;7.32;100.00;102209.06;5030090;28;20085;-79
2023/01/29 10:08:12;;;;;;;0.40;0.40;;;;;;;7.34;100.00;102209.81;5028010;28;20033;-79
2023/01/29 10:10:47;;;;;;;0.50;0.50;;;;;;;7.40;100.00;102212.84;5014757;28;20022;-79
2023/01/29 10:13:36;;;;;;;0.50;0.50;;;;;;;7.40;100.00;102204.81;5029941;28;20034;-79
2023/01/29 10:16:07;;;;;;;0.50;0.50;;;;;;;7.55;100.00;102205.44;4997452;28;20042;-79
2023/01/29 10:19:08;;;;;;;0.50;0.50;;;;;;;7.59;100.00;102196.19;5013520;28;20030;-80
2023/01/29 10:21:37;;;;;;;0.50;0.50;;;;;;;7.72;100.00;102193.38;5011134;28;20042;-80
2023/01/29 10:24:31;;;;;;;0.50;0.50;;;;;;;7.79;100.00;102199.13;5013633;28;20518;-80
2023/01/29 10:26:57;;;;;;;0.60;0.60;;;;;;;7.88;100.00;102198.38;5013599;28;20499;-79
2023/01/29 10:29:24;;;;;;;0.40;0.40;;;;;;;7.95;100.00;102194.25;5012739;28;20084;-79
2023/01/29 10:32:03;;;;;;;0.40;0.40;;;;;;;7.87;100.00;102194.84;5013142;28;20084;-79
2023/01/29 10:34:44;;;;;;;0.45;0.45;;;;;;;7.95;100.00;102190.72;4998742;28;20125;-79
2023/01/29 10:37:27;;;;;;;0.43;0.43;;;;;;;8.03;100.00;102191.78;4996351;28;20030;-79
2023/01/29 10:39:53;;;;;;;0.50;0.50;;;;;;;8.09;100.00;102183.25;5013220;28;20091;-79
2023/01/29 10:42:34;;;;;;;0.57;0.57;;;;;;;8.23;100.00;102192.00;5012900;28;20034;-79
2023/01/29 10:45:28;;;;;;;0.50;0.50;;;;;;;8.31;100.00;102190.41;5013032;28;20029;-79
2023/01/29 10:48:15;;;;;;;0.40;0.40;;;;;;;8.35;100.00;102188.31;5029034;28;20037;-77
2023/01/29 10:50:52;;;;;;;0.40;0.40;;;;;;;8.38;100.00;102166.63;5012487;28;20054;-79
2023/01/29 10:53:38;;;;;;;0.50;0.50;;;;;;;8.48;100.00;102178.31;5012970;28;20136;-78
2023/01/29 10:56:13;;;;;;;0.50;0.50;;;;;;;8.44;100.00;102173.31;5012860;28;20399;-78
2023/01/29 10:58:41;;;;;;;0.40;0.40;;;;;;;8.58;100.00;102184.63;5013020;28;20046;-77
2023/01/29 11:01:08;;;;;;;0.45;0.45;;;;;;;8.67;100.00;102180.31;5013828;28;20142;-79
2023/01/29 11:03:34;;;;;;;0.50;0.50;;;;;;;8.73;100.00;102185.19;5012522;28;20044;-78
2023/01/29 11:06:03;;;;;;;0.40;0.40;;;;;;;8.74;100.00;102176.13;4995852;28;20041;-78
2023/01/29 11:09:10;;;;;;;0.50;0.50;;;;;;;8.84;100.00;102188.75;5013531;28;20068;-79
2023/01/29 11:11:47;;;;;;;0.45;0.45;;;;;;;8.88;100.00;102182.16;5012467;28;20033;-79
2023/01/29 11:14:35;;;;;;;0.45;0.45;;;;;;;8.82;100.00;102163.91;5028999;28;20111;-78
2023/01/29 11:17:01;;;;;;;0.40;0.40;;;;;;;8.87;100.00;102184.00;5013511;28;20073;-78
2023/01/29 11:19:38;;;;;;;0.40;0.40;;;;;;;8.79;100.00;102144.41;5012373;28;20451;-78
2023/01/29 11:22:05;;;;;;;0.40;0.40;;;;;;;9.07;100.00;102165.34;5012599;28;20112;-78
2023/01/29 11:24:31;;;;;;;0.40;0.40;;;;;;;9.17;100.00;102168.94;4996726;28;20041;-77
2023/01/29 11:26:58;;;;;;;0.40;0.40;;;;;;;9.22;100.00;102170.25;4979746;28;20034;-78
2023/01/29 11:29:44;;;;;;;0.40;0.40;;;;;;;9.31;100.00;102163.22;4995689;28;20032;-79
2023/01/29 11:32:32;;;;;;;0.40;0.40;;;;;;;9.45;100.00;102154.84;5012789;28;20058;-78
2023/01/29 11:35:04;;;;;;;0.40;0.40;;;;;;;9.42;100.00;102124.69;4996162;28;20389;-79
2023/01/29 11:37:32;;;;;;;0.40;0.40;;;;;;;9.76;100.00;102146.75;4995640;28;20403;-83
2023/01/29 11:39:58;;;;;;;0.40;0.40;;;;;;;9.84;100.00;102144.25;5012703;28;20026;-84
2023/01/29 11:42:26;;;;;;;0.40;0.40;;;;;;;9.82;100.00;102134.63;5012711;28;20506;-84
2023/01/29 11:44:51;;;;;;;0.43;0.43;;;;;;;9.99;100.00;102133.94;4996430;28;20140;-83
2023/01/29 11:47:25;;;;;;;0.40;0.40;;;;;;;10.08;100.00;102133.13;4996267;28;20467;-82
2023/01/29 11:50:02;;;;;;;;;;;;;;;10.13;100.00;102121.94;5012519;28;20041;-82
2023/01/29 11:52:41;;;;;;;0.40;0.40;;;;;;;10.07;100.00;102101.84;5009256;28;19917;-83
2023/01/29 11:55:24;;;;;;;0.50;0.50;;;;;;;10.32;100.00;102111.25;5012131;28;20104;-83
2023/01/29 11:57:53;;;;;;;0.50;0.50;;;;;;;10.59;100.00;102095.41;4995203;28;20491;-83
2023/01/29 12:00:24;;;;;;;0.50;0.50;;;;;;;10.96;100.00;102082.00;5012053;28;20120;-83
2023/01/29 12:03:20;;;;;;;0.40;0.40;;;;;;;11.42;100.00;102082.97;4995904;28;20110;-84
2023/01/29 12:06:12;;;;;;;0.50;0.50;;;;;;;11.74;100.00;102087.88;5012031;28;20383;-84
2023/01/29 12:08:39;;;;;;;0.40;0.40;;;;;;;11.86;100.00;102059.78;5011890;28;20080;-83